Fecha, hora, temperatura, viento dirección y velocidad, humedad y presión.

  • 16-01-2019 16:00:00 | 3.50°C | Sur |6.00 km/h | 94.00% | 931.40 hPa
  • 16-01-2019 15:00:00 | 1.80°C | Sur |4.00 km/h | 100.00% | 931.60 hPa
  • 16-01-2019 14:00:00 | 0.60°C | Sudeste |3.00 km/h | 100.00% | 932.10 hPa
  • 16-01-2019 13:00:00 | -0.10°C | Sur |4.00 km/h | 100.00% | 932.70 hPa
  • 16-01-2019 12:00:00 | -0.50°C | Sudoeste |3.00 km/h | 100.00% | 933.40 hPa
  • 16-01-2019 11:00:00 | -1.30°C | Sur |3.00 km/h | 100.00% | 933.20 hPa
  • 16-01-2019 10:00:00 | -1.50°C | Sudeste |6.00 km/h | 100.00% | 932.70 hPa
  • 16-01-2019 09:00:00 | -1.80°C | Sudeste |5.00 km/h | 100.00% | 932.80 hPa
  • 16-01-2019 08:00:00 | -1.90°C | Sur |3.00 km/h | 100.00% | 932.40 hPa
  • 16-01-2019 07:00:00 | -1.70°C | Sudeste |4.00 km/h | 100.00% | 932.30 hPa
  • 16-01-2019 06:00:00 | -1.20°C | Sudeste |3.00 km/h | 100.00% | 932.30 hPa
  • 16-01-2019 05:00:00 | -0.80°C | Sudeste |3.00 km/h | 100.00% | 932.80 hPa
  • 16-01-2019 04:00:00 | -0.60°C | Calma |0.00 km/h | 100.00% | 933.20 hPa
  • 16-01-2019 03:00:00 | -0.60°C | Sudeste |2.00 km/h | 100.00% | 933.20 hPa
  • 16-01-2019 02:00:00 | -0.40°C | Calma |0.00 km/h | 100.00% | 933.40 hPa
  • 16-01-2019 01:00:00 | -0.20°C | Sur |3.00 km/h | 100.00% | 933.70 hPa
  • 16-01-2019 00:00:00 | 0.40°C | Sudeste |4.00 km/h | 99.00% | 934.10 hPa
  • 15-01-2019 23:00:00 | 0.80°C | Sur |3.00 km/h | 99.00% | 934.20 hPa
  • 15-01-2019 22:00:00 | 1.10°C | Oeste |3.00 km/h | 99.00% | 934.10 hPa
  • 15-01-2019 21:00:00 | 1.60°C | Sudoeste |6.00 km/h | 99.00% | 934.00 hPa
  • 15-01-2019 20:00:00 | 2.10°C | Sur |5.00 km/h | 98.00% | 933.90 hPa
  • 15-01-2019 19:00:00 | 2.50°C | Sur |7.00 km/h | 96.00% | 933.80 hPa
  • 15-01-2019 18:00:00 | 3.60°C | Sur |10.00 km/h | 87.00% | 933.50 hPa
  • 15-01-2019 17:00:00 | 6.10°C | Sur |4.00 km/h | 79.00% | 933.40 hPa
    • diseño web asturias Información sobre el estado de las mareas, altura de la marejada, temperatura del agua y otros datos de Gijón en Asturias.

      Surf Gijón